Wilson Mersin — P3PA6 — position and weather

sailwx.info

Track history (hours):
 
Tides and Currents Weather Stations Pressure Air Temp Water Temp Dewpoint Dewpoint Depression Visibility Wind Speed Wind Dir Waves Ship Positions

Wilson Mersin

Last reported at 2014-Dec-18 22:04 UTC. Time now 2014-Dec-23 01:37 UTC.
Position N 64°02' E 009°32'.

Length 107 m; draft 6.6 m.

Type: Cargo ship. MMSI: 210072000.

Date/timePositionNaut miles runAvg speedWind from/ knotsBaromVisibWave heightAir tempDewpointWater temp
2014-Dec-18 22:04N 64°02' E 009°32'2113.2
2014-Dec-18 20:28N 63°42' E 009°16'  
2014-Dec-14 16:07N 54°42' E 004°55'712.0
2014-Dec-14 15:33N 54°36' E 004°54'1212.1
2014-Dec-14 14:32N 54°23' E 004°54'1111.8
2014-Dec-14 13:34N 54°12' E 004°56'1212.2
2014-Dec-14 12:32N 53°59' E 004°53'1212.0
2014-Dec-14 11:34N 53°48' E 004°52'1212.2
2014-Dec-14 10:34N 53°36' E 004°50'1313.1
2014-Dec-14 09:33N 53°23' E 004°42'1313.4
2014-Dec-14 08:33N 53°11' E 004°33'1413.6
2014-Dec-14 07:33N 52°60' E 004°21'1312.9
2014-Dec-14 06:33N 52°48' E 004°11'1312.8
2014-Dec-14 05:33N 52°39' E 003°57'1212.4
2014-Dec-14 04:33N 52°26' E 003°53'1211.9
2014-Dec-14 03:33N 52°14' E 003°53'1111.4
2014-Dec-14 02:33N 52°03' E 003°54'9 9.4
2014-Dec-14 01:33N 51°58' E 004°07'2 1.8
2014-Dec-14 00:32N 51°57' E 004°09'0 0.0
2014-Dec-13 23:32N 51°57' E 004°09'0 0.0
2014-Dec-13 22:32N 51°57' E 004°09'0 0.0
2014-Dec-13 21:32N 51°57' E 004°09'0 0.0
2014-Dec-13 20:32N 51°57' E 004°09'0 0.0
2014-Dec-13 19:32N 51°57' E 004°09'0 0.0
2014-Dec-13 18:34N 51°57' E 004°09'9 9.2
2014-Dec-13 17:33N 52°00' E 003°55'1010.3
2014-Dec-13 16:33N 51°58' E 003°38'4912.4
2014-Dec-13 12:33N 51°37' E 002°26'1311.5
2014-Dec-13 11:23N 51°27' E 002°13'1012.0
2014-Dec-13 10:31N 51°17' E 002°06'1111.7
2014-Dec-13 09:33N 51°10' E 001°53'1111.5
2014-Dec-13 08:34N 51°02' E 001°39'  
2014-Dec-10 04:31N 39°08' W 009°50'1211.9
2014-Dec-10 03:32N 38°56' W 009°51'1211.9
2014-Dec-10 02:31N 38°44' W 009°51'1111.1
2014-Dec-10 01:33N 38°34' W 009°45'1212.1
2014-Dec-10 00:32N 38°26' W 009°34'1212.3
2014-Dec-09 23:33N 38°18' W 009°23'1312.4
2014-Dec-09 22:33N 38°10' W 009°11'1312.8
2014-Dec-09 21:33N 38°01' W 008°59'8 7.8
2014-Dec-09 20:32N 37°56' W 008°51'0 0.0
2014-Dec-09 19:32N 37°56' W 008°51'0 0.0
2014-Dec-09 18:32N 37°56' W 008°51'0 0.0
2014-Dec-09 17:32N 37°56' W 008°51'0 0.0
2014-Dec-09 16:32N 37°56' W 008°51'0 0.0
2014-Dec-09 15:32N 37°56' W 008°51'0 0.0
2014-Dec-09 14:32N 37°56' W 008°51'0 0.0
2014-Dec-09 13:32N 37°56' W 008°51'0 0.0
2014-Dec-09 12:32N 37°56' W 008°51'0 0.0
2014-Dec-09 11:32N 37°56' W 008°51'0 0.0
2014-Dec-09 10:32N 37°56' W 008°51'0 0.0
2014-Dec-09 09:32N 37°56' W 008°51'0 0.0
2014-Dec-09 08:32N 37°56' W 008°51'0 0.0
2014-Dec-09 07:32N 37°56' W 008°51'0 0.0
2014-Dec-09 06:32N 37°56' W 008°51'0 0.0
2014-Dec-09 05:32N 37°56' W 008°51'0 0.0
2014-Dec-09 04:32N 37°56' W 008°51'0 0.0
2014-Dec-09 03:32N 37°56' W 008°51'0 0.0
2014-Dec-09 02:33N 37°56' W 008°51'0 0.0
2014-Dec-09 01:32N 37°56' W 008°51'0 0.0
2014-Dec-09 00:29N 37°56' W 008°51'0 0.0
2014-Dec-08 23:32N 37°56' W 008°51'0 0.0
2014-Dec-08 22:32N 37°56' W 008°51'  
Track history (hours):
 
Tides and Currents Weather Stations Pressure Air Temp Water Temp Dewpoint Dewpoint Depression Visibility Wind Speed Wind Dir Waves Ship Positions

Wilson Mersin

Last reported at 2014-Dec-18 22:04 UTC. Time now 2014-Dec-23 01:37 UTC.
Position N 64°02' E 009°32'.

Length 107 m; draft 6.6 m.

Type: Cargo ship. MMSI: 210072000.

Date/timePositionNaut miles runAvg speedWind from/ knotsBaromVisibWave heightAir tempDewpointWater temp
2014-Dec-18 22:04N 64°02' E 009°32'2113.2
2014-Dec-18 20:28N 63°42' E 009°16'  
2014-Dec-14 16:07N 54°42' E 004°55'712.0
2014-Dec-14 15:33N 54°36' E 004°54'1212.1
2014-Dec-14 14:32N 54°23' E 004°54'1111.8
2014-Dec-14 13:34N 54°12' E 004°56'1212.2
2014-Dec-14 12:32N 53°59' E 004°53'1212.0
2014-Dec-14 11:34N 53°48' E 004°52'1212.2
2014-Dec-14 10:34N 53°36' E 004°50'1313.1
2014-Dec-14 09:33N 53°23' E 004°42'1313.4
2014-Dec-14 08:33N 53°11' E 004°33'1413.6
2014-Dec-14 07:33N 52°60' E 004°21'1312.9
2014-Dec-14 06:33N 52°48' E 004°11'1312.8
2014-Dec-14 05:33N 52°39' E 003°57'1212.4
2014-Dec-14 04:33N 52°26' E 003°53'1211.9
2014-Dec-14 03:33N 52°14' E 003°53'1111.4
2014-Dec-14 02:33N 52°03' E 003°54'9 9.4
2014-Dec-14 01:33N 51°58' E 004°07'2 1.8
2014-Dec-14 00:32N 51°57' E 004°09'0 0.0
2014-Dec-13 23:32N 51°57' E 004°09'0 0.0
2014-Dec-13 22:32N 51°57' E 004°09'0 0.0
2014-Dec-13 21:32N 51°57' E 004°09'0 0.0
2014-Dec-13 20:32N 51°57' E 004°09'0 0.0
2014-Dec-13 19:32N 51°57' E 004°09'0 0.0
2014-Dec-13 18:34N 51°57' E 004°09'9 9.2
2014-Dec-13 17:33N 52°00' E 003°55'1010.3
2014-Dec-13 16:33N 51°58' E 003°38'4912.4
2014-Dec-13 12:33N 51°37' E 002°26'1311.5
2014-Dec-13 11:23N 51°27' E 002°13'1012.0
2014-Dec-13 10:31N 51°17' E 002°06'1111.7
2014-Dec-13 09:33N 51°10' E 001°53'1111.5
2014-Dec-13 08:34N 51°02' E 001°39'  
2014-Dec-10 04:31N 39°08' W 009°50'1211.9
2014-Dec-10 03:32N 38°56' W 009°51'1211.9
2014-Dec-10 02:31N 38°44' W 009°51'1111.1
2014-Dec-10 01:33N 38°34' W 009°45'1212.1
2014-Dec-10 00:32N 38°26' W 009°34'1212.3
2014-Dec-09 23:33N 38°18' W 009°23'1312.4
2014-Dec-09 22:33N 38°10' W 009°11'1312.8
2014-Dec-09 21:33N 38°01' W 008°59'8 7.8
2014-Dec-09 20:32N 37°56' W 008°51'0 0.0
2014-Dec-09 19:32N 37°56' W 008°51'0 0.0
2014-Dec-09 18:32N 37°56' W 008°51'0 0.0
2014-Dec-09 17:32N 37°56' W 008°51'0 0.0
2014-Dec-09 16:32N 37°56' W 008°51'0 0.0
2014-Dec-09 15:32N 37°56' W 008°51'0 0.0
2014-Dec-09 14:32N 37°56' W 008°51'0 0.0
2014-Dec-09 13:32N 37°56' W 008°51'0 0.0
2014-Dec-09 12:32N 37°56' W 008°51'0 0.0
2014-Dec-09 11:32N 37°56' W 008°51'0 0.0
2014-Dec-09 10:32N 37°56' W 008°51'0 0.0
2014-Dec-09 09:32N 37°56' W 008°51'0 0.0
2014-Dec-09 08:32N 37°56' W 008°51'0 0.0
2014-Dec-09 07:32N 37°56' W 008°51'0 0.0
2014-Dec-09 06:32N 37°56' W 008°51'0 0.0
2014-Dec-09 05:32N 37°56' W 008°51'0 0.0
2014-Dec-09 04:32N 37°56' W 008°51'0 0.0
2014-Dec-09 03:32N 37°56' W 008°51'0 0.0
2014-Dec-09 02:33N 37°56' W 008°51'0 0.0
2014-Dec-09 01:32N 37°56' W 008°51'0 0.0
2014-Dec-09 00:29N 37°56' W 008°51'0 0.0
2014-Dec-08 23:32N 37°56' W 008°51'0 0.0
2014-Dec-08 22:32N 37°56' W 008°51'  

Dump ship's entire track history